sensor_id;sensor_type;location;lat;lon;timestamp;pressure;altitude;pressure_sealevel;temperature;humidity
38939;BME280;24211;49.980;19.776;2024-02-15T00:00:32;99893.06;;;6.64;100.00
38939;BME280;24211;49.980;19.776;2024-02-15T00:03:20;99892.41;;;6.62;100.00
38939;BME280;24211;49.980;19.776;2024-02-15T00:05:48;99895.06;;;6.62;100.00
38939;BME280;24211;49.980;19.776;2024-02-15T00:08:16;99893.44;;;6.61;100.00
38939;BME280;24211;49.980;19.776;2024-02-15T00:10:44;99894.66;;;6.58;100.00
38939;BME280;24211;49.980;19.776;2024-02-15T00:13:13;99891.16;;;6.57;100.00
38939;BME280;24211;49.980;19.776;2024-02-15T00:15:41;99891.16;;;6.57;100.00
38939;BME280;24211;49.980;19.776;2024-02-15T00:18:23;99904.44;;;6.57;100.00
38939;BME280;24211;49.980;19.776;2024-02-15T00:20:51;99888.66;;;6.56;100.00
38939;BME280;24211;49.980;19.776;2024-02-15T00:23:18;99885.84;;;6.57;100.00
38939;BME280;24211;49.980;19.776;2024-02-15T00:25:48;99884.38;;;6.55;100.00
38939;BME280;24211;49.980;19.776;2024-02-15T00:28:16;99885.56;;;6.52;100.00
38939;BME280;24211;49.980;19.776;2024-02-15T00:31:10;99890.88;;;6.52;100.00
38939;BME280;24211;49.980;19.776;2024-02-15T00:33:50;99892.91;;;6.50;100.00
38939;BME280;24211;49.980;19.776;2024-02-15T00:36:43;99887.97;;;6.47;100.00
38939;BME280;24211;49.980;19.776;2024-02-15T00:39:13;99894.25;;;6.46;100.00
38939;BME280;24211;49.980;19.776;2024-02-15T00:41:58;99889.97;;;6.45;100.00
38939;BME280;24211;49.980;19.776;2024-02-15T00:45:11;99889.34;;;6.43;100.00
38939;BME280;24211;49.980;19.776;2024-02-15T00:48:29;99894.00;;;6.41;100.00
38939;BME280;24211;49.980;19.776;2024-02-15T00:51:12;99894.00;;;6.41;100.00
38939;BME280;24211;49.980;19.776;2024-02-15T00:53:40;99894.38;;;6.38;100.00
38939;BME280;24211;49.980;19.776;2024-02-15T00:56:07;99903.34;;;6.37;100.00
38939;BME280;24211;49.980;19.776;2024-02-15T00:58:34;99900.88;;;6.36;100.00
38939;BME280;24211;49.980;19.776;2024-02-15T01:01:26;99897.41;;;6.35;100.00
38939;BME280;24211;49.980;19.776;2024-02-15T01:04:20;99899.84;;;6.37;100.00
38939;BME280;24211;49.980;19.776;2024-02-15T01:07:13;99896.38;;;6.36;100.00
38939;BME280;24211;49.980;19.776;2024-02-15T01:10:06;99901.69;;;6.36;100.00
38939;BME280;24211;49.980;19.776;2024-02-15T01:12:34;99891.06;;;6.36;100.00
38939;BME280;24211;49.980;19.776;2024-02-15T01:15:57;99896.38;;;6.36;100.00
38939;BME280;24211;49.980;19.776;2024-02-15T01:18:24;99907.00;;;6.36;100.00
38939;BME280;24211;49.980;19.776;2024-02-15T01:21:56;99911.50;;;6.36;100.00
38939;BME280;24211;49.980;19.776;2024-02-15T01:24:47;99907.19;;;6.35;100.00
38939;BME280;24211;49.980;19.776;2024-02-15T01:27:18;99907.38;;;6.33;100.00
38939;BME280;24211;49.980;19.776;2024-02-15T01:29:47;99911.03;;;6.32;100.00
38939;BME280;24211;49.980;19.776;2024-02-15T01:32:15;99905.72;;;6.32;100.00
38939;BME280;24211;49.980;19.776;2024-02-15T01:38:26;99915.97;;;6.35;100.00
38939;BME280;24211;49.980;19.776;2024-02-15T01:40:53;99913.50;;;6.34;100.00
38939;BME280;24211;49.980;19.776;2024-02-15T01:43:28;99904.53;;;6.35;100.00
38939;BME280;24211;49.980;19.776;2024-02-15T01:46:45;99905.34;;;6.35;100.00
38939;BME280;24211;49.980;19.776;2024-02-15T01:50:07;99902.50;;;6.37;100.00
38939;BME280;24211;49.980;19.776;2024-02-15T01:53:59;99905.00;;;6.38;100.00
38939;BME280;24211;49.980;19.776;2024-02-15T01:56:54;99909.63;;;6.36;100.00
38939;BME280;24211;49.980;19.776;2024-02-15T01:59:50;99917.59;;;6.36;100.00
38939;BME280;24211;49.980;19.776;2024-02-15T02:02:45;99928.63;;;6.33;100.00
38939;BME280;24211;49.980;19.776;2024-02-15T02:05:13;99925.75;;;6.35;100.00
38939;BME280;24211;49.980;19.776;2024-02-15T02:08:06;99921.72;;;6.39;100.00
38939;BME280;24211;49.980;19.776;2024-02-15T02:10:53;99913.97;;;6.37;100.00
38939;BME280;24211;49.980;19.776;2024-02-15T02:13:21;99913.97;;;6.37;100.00
38939;BME280;24211;49.980;19.776;2024-02-15T02:15:49;99901.69;;;6.36;100.00
38939;BME280;24211;49.980;19.776;2024-02-15T02:18:16;99920.25;;;6.36;100.00
38939;BME280;24211;49.980;19.776;2024-02-15T02:20:44;99913.13;;;6.37;100.00
38939;BME280;24211;49.980;19.776;2024-02-15T02:23:25;99908.66;;;6.37;100.00
38939;BME280;24211;49.980;19.776;2024-02-15T02:25:56;99904.16;;;6.38;100.00
38939;BME280;24211;49.980;19.776;2024-02-15T02:28:23;99893.56;;;6.38;100.00
38939;BME280;24211;49.980;19.776;2024-02-15T02:31:51;99883.75;;;6.38;100.00
38939;BME280;24211;49.980;19.776;2024-02-15T02:37:43;99894.38;;;6.38;100.00
38939;BME280;24211;49.980;19.776;2024-02-15T02:40:11;99891.06;;;6.36;100.00
38939;BME280;24211;49.980;19.776;2024-02-15T02:42:56;99895.56;;;6.36;100.00
38939;BME280;24211;49.980;19.776;2024-02-15T02:45:32;99895.56;;;6.36;100.00
38939;BME280;24211;49.980;19.776;2024-02-15T02:48:15;99884.13;;;6.35;100.00
38939;BME280;24211;49.980;19.776;2024-02-15T02:50:46;99886.13;;;6.33;100.00
38939;BME280;24211;49.980;19.776;2024-02-15T02:53:16;99887.97;;;6.33;100.00
38939;BME280;24211;49.980;19.776;2024-02-15T02:55:47;99888.97;;;6.32;100.00
38939;BME280;24211;49.980;19.776;2024-02-15T02:58:15;99884.47;;;6.32;100.00
38939;BME280;24211;49.980;19.776;2024-02-15T03:00:43;99882.84;;;6.31;100.00
38939;BME280;24211;49.980;19.776;2024-02-15T03:03:10;99884.47;;;6.32;100.00
38939;BME280;24211;49.980;19.776;2024-02-15T03:05:43;99882.66;;;6.33;100.00
38939;BME280;24211;49.980;19.776;2024-02-15T03:08:11;99887.13;;;6.32;100.00
38939;BME280;24211;49.980;19.776;2024-02-15T03:11:06;99893.47;;;6.31;100.00
38939;BME280;24211;49.980;19.776;2024-02-15T03:13:47;99895.38;;;6.23;100.00
38939;BME280;24211;49.980;19.776;2024-02-15T03:16:35;99894.19;;;6.25;100.00
38939;BME280;24211;49.980;19.776;2024-02-15T03:19:06;99893.19;;;6.26;100.00
38939;BME280;24211;49.980;19.776;2024-02-15T03:21:39;99895.84;;;6.26;100.00
38939;BME280;24211;49.980;19.776;2024-02-15T03:24:08;99895.84;;;6.26;100.00
38939;BME280;24211;49.980;19.776;2024-02-15T03:27:00;99892.81;;;6.29;100.00
38939;BME280;24211;49.980;19.776;2024-02-15T03:29:31;99884.84;;;6.29;100.00
38939;BME280;24211;49.980;19.776;2024-02-15T03:32:52;99879.53;;;6.29;100.00
38939;BME280;24211;49.980;19.776;2024-02-15T03:35:27;99879.53;;;6.29;100.00
38939;BME280;24211;49.980;19.776;2024-02-15T03:37:56;99877.91;;;6.28;100.00
38939;BME280;24211;49.980;19.776;2024-02-15T03:40:23;99883.22;;;6.28;100.00
38939;BME280;24211;49.980;19.776;2024-02-15T03:42:54;99878.91;;;6.27;100.00
38939;BME280;24211;49.980;19.776;2024-02-15T03:46:01;99880.56;;;6.28;100.00
38939;BME280;24211;49.980;19.776;2024-02-15T03:48:29;99881.19;;;6.30;100.00
38939;BME280;24211;49.980;19.776;2024-02-15T03:50:56;99880.19;;;6.31;100.00
38939;BME280;24211;49.980;19.776;2024-02-15T03:53:24;99876.72;;;6.31;100.00
38939;BME280;24211;49.980;19.776;2024-02-15T03:56:16;99884.47;;;6.32;100.00
38939;BME280;24211;49.980;19.776;2024-02-15T03:58:46;99884.47;;;6.32;100.00
38939;BME280;24211;49.980;19.776;2024-02-15T04:01:13;99879.16;;;6.32;100.00
38939;BME280;24211;49.980;19.776;2024-02-15T04:04:09;99881.00;;;6.32;100.00
38939;BME280;24211;49.980;19.776;2024-02-15T04:06:36;99873.03;;;6.32;100.00
38939;BME280;24211;49.980;19.776;2024-02-15T04:09:04;99874.69;;;6.33;100.00
38939;BME280;24211;49.980;19.776;2024-02-15T04:11:36;99883.50;;;6.33;100.00
38939;BME280;24211;49.980;19.776;2024-02-15T04:14:19;99878.81;;;6.35;100.00
38939;BME280;24211;49.980;19.776;2024-02-15T04:16:47;99871.69;;;6.36;100.00
38939;BME280;24211;49.980;19.776;2024-02-15T04:19:15;99872.69;;;6.35;100.00
38939;BME280;24211;49.980;19.776;2024-02-15T04:21:42;99870.22;;;6.33;100.00
38939;BME280;24211;49.980;19.776;2024-02-15T04:24:18;99877.53;;;6.31;100.00
38939;BME280;24211;49.980;19.776;2024-02-15T04:26:48;99881.19;;;6.30;100.00
38939;BME280;24211;49.980;19.776;2024-02-15T04:29:24;99874.41;;;6.28;100.00
38939;BME280;24211;49.980;19.776;2024-02-15T04:32:33;99871.75;;;6.28;100.00
38939;BME280;24211;49.980;19.776;2024-02-15T04:35:02;99877.91;;;6.28;100.00
38939;BME280;24211;49.980;19.776;2024-02-15T04:37:58;99875.41;;;6.27;100.00
38939;BME280;24211;49.980;19.776;2024-02-15T04:40:41;99871.97;;;6.26;100.00
38939;BME280;24211;49.980;19.776;2024-02-15T04:43:08;99870.56;;;6.30;100.00
38939;BME280;24211;49.980;19.776;2024-02-15T04:45:35;99882.84;;;6.31;100.00
38939;BME280;24211;49.980;19.776;2024-02-15T04:48:03;99883.66;;;6.32;100.00
38939;BME280;24211;49.980;19.776;2024-02-15T04:50:56;99883.66;;;6.32;100.00
38939;BME280;24211;49.980;19.776;2024-02-15T04:53:43;99878.53;;;6.30;100.00
38939;BME280;24211;49.980;19.776;2024-02-15T04:56:25;99887.13;;;6.32;100.00
38939;BME280;24211;49.980;19.776;2024-02-15T04:58:52;99894.09;;;6.33;100.00
38939;BME280;24211;49.980;19.776;2024-02-15T05:01:38;99888.97;;;6.32;100.00
38939;BME280;24211;49.980;19.776;2024-02-15T05:04:42;99884.47;;;6.32;100.00
38939;BME280;24211;49.980;19.776;2024-02-15T05:07:13;99902.06;;;6.33;100.00
38939;BME280;24211;49.980;19.776;2024-02-15T05:10:36;99898.38;;;6.34;100.00
38939;BME280;24211;49.980;19.776;2024-02-15T05:13:41;99900.06;;;6.35;100.00
38939;BME280;24211;49.980;19.776;2024-02-15T05:16:08;99891.88;;;6.37;100.00
38939;BME280;24211;49.980;19.776;2024-02-15T05:18:35;99903.34;;;6.37;100.00
38939;BME280;24211;49.980;19.776;2024-02-15T05:21:05;99900.50;;;6.39;100.00
38939;BME280;24211;49.980;19.776;2024-02-15T05:23:40;99910.13;;;6.40;100.00
38939;BME280;24211;49.980;19.776;2024-02-15T05:26:12;99912.78;;;6.40;100.00
38939;BME280;24211;49.980;19.776;2024-02-15T05:28:43;99913.59;;;6.40;100.00
38939;BME280;24211;49.980;19.776;2024-02-15T05:31:20;99910.75;;;6.42;100.00
38939;BME280;24211;49.980;19.776;2024-02-15T05:33:50;99912.56;;;6.41;100.00
38939;BME280;24211;49.980;19.776;2024-02-15T05:36:29;99914.22;;;6.42;100.00
38939;BME280;24211;49.980;19.776;2024-02-15T05:38:56;99915.91;;;6.43;100.00
38939;BME280;24211;49.980;19.776;2024-02-15T05:41:51;99915.22;;;6.41;100.00
38939;BME280;24211;49.980;19.776;2024-02-15T05:44:44;99920.53;;;6.41;100.00
38939;BME280;24211;49.980;19.776;2024-02-15T05:48:03;99916.25;;;6.40;100.00
38939;BME280;24211;49.980;19.776;2024-02-15T05:51:26;99912.78;;;6.40;100.00
38939;BME280;24211;49.980;19.776;2024-02-15T05:53:54;99906.63;;;6.39;100.00
38939;BME280;24211;49.980;19.776;2024-02-15T05:56:54;99913.59;;;6.40;100.00
38939;BME280;24211;49.980;19.776;2024-02-15T06:00:01;99928.34;;;6.43;100.00
38939;BME280;24211;49.980;19.776;2024-02-15T06:02:58;99922.84;;;6.44;100.00
38939;BME280;24211;49.980;19.776;2024-02-15T06:05:50;99926.31;;;6.45;100.00
38939;BME280;24211;49.980;19.776;2024-02-15T06:08:19;99926.31;;;6.45;100.00
38939;BME280;24211;49.980;19.776;2024-02-15T06:11:09;99927.97;;;6.46;100.00
38939;BME280;24211;49.980;19.776;2024-02-15T06:13:41;99928.78;;;6.46;100.00
38939;BME280;24211;49.980;19.776;2024-02-15T06:16:08;99924.13;;;6.48;100.00
38939;BME280;24211;49.980;19.776;2024-02-15T06:19:01;99919.47;;;6.50;100.00
38939;BME280;24211;49.980;19.776;2024-02-15T06:21:29;99925.41;;;6.52;100.00
38939;BME280;24211;49.980;19.776;2024-02-15T06:24:21;99925.41;;;6.52;100.00
38939;BME280;24211;49.980;19.776;2024-02-15T06:26:57;99928.69;;;6.54;100.00
38939;BME280;24211;49.980;19.776;2024-02-15T06:29:33;99934.63;;;6.56;100.00
38939;BME280;24211;49.980;19.776;2024-02-15T06:32:22;99936.31;;;6.57;100.00
38939;BME280;24211;49.980;19.776;2024-02-15T06:35:49;99947.19;;;6.63;100.00
38939;BME280;24211;49.980;19.776;2024-02-15T06:39:10;99942.53;;;6.65;100.00
38939;BME280;24211;49.980;19.776;2024-02-15T06:42:00;99938.47;;;6.69;100.00
38939;BME280;24211;49.980;19.776;2024-02-15T06:44:38;99938.13;;;6.72;100.00
38939;BME280;24211;49.980;19.776;2024-02-15T06:47:32;99937.75;;;6.75;100.00
38939;BME280;24211;49.980;19.776;2024-02-15T06:50:00;99941.03;;;6.77;100.00
38939;BME280;24211;49.980;19.776;2024-02-15T06:52:28;99940.69;;;6.80;100.00
38939;BME280;24211;49.980;19.776;2024-02-15T06:54:56;99943.97;;;6.82;100.00
38939;BME280;24211;49.980;19.776;2024-02-15T06:57:23;99943.59;;;6.85;100.00
38939;BME280;24211;49.980;19.776;2024-02-15T06:59:50;99944.25;;;6.87;100.00
38939;BME280;24211;49.980;19.776;2024-02-15T07:02:18;99949.56;;;6.87;100.00
38939;BME280;24211;49.980;19.776;2024-02-15T07:04:51;99949.34;;;6.88;100.00
38939;BME280;24211;49.980;19.776;2024-02-15T07:07:18;99958.78;;;6.91;100.00
38939;BME280;24211;49.980;19.776;2024-02-15T07:10:38;99957.78;;;6.92;100.00
38939;BME280;24211;49.980;19.776;2024-02-15T07:13:05;99948.81;;;6.93;100.00
38939;BME280;24211;49.980;19.776;2024-02-15T07:15:35;99951.09;;;6.96;100.00
38939;BME280;24211;49.980;19.776;2024-02-15T07:18:06;99949.06;;;6.98;100.00
38939;BME280;24211;49.980;19.776;2024-02-15T07:20:34;99953.00;;;7.02;100.00
38939;BME280;24211;49.980;19.776;2024-02-15T07:23:02;99952.81;;;7.03;100.00
38939;BME280;24211;49.980;19.776;2024-02-15T07:25:45;99950.00;;;7.05;100.00
38939;BME280;24211;49.980;19.776;2024-02-15T07:28:16;99956.78;;;7.07;100.00
38939;BME280;24211;49.980;19.776;2024-02-15T07:30:43;99961.06;;;7.08;100.00
38939;BME280;24211;49.980;19.776;2024-02-15T07:33:11;99956.19;;;7.12;100.00
38939;BME280;24211;49.980;19.776;2024-02-15T07:35:38;99961.94;;;7.15;100.00
38939;BME280;24211;49.980;19.776;2024-02-15T07:38:14;99965.25;;;7.17;100.00
38939;BME280;24211;49.980;19.776;2024-02-15T07:40:41;99951.78;;;7.19;100.00
38939;BME280;24211;49.980;19.776;2024-02-15T07:43:28;99960.38;;;7.21;100.00
38939;BME280;24211;49.980;19.776;2024-02-15T07:46:46;99954.34;;;7.27;100.00
38939;BME280;24211;49.980;19.776;2024-02-15T07:49:16;99949.44;;;7.31;100.00
38939;BME280;24211;49.980;19.776;2024-02-15T07:51:53;99958.50;;;7.36;100.00
38939;BME280;24211;49.980;19.776;2024-02-15T07:54:24;99954.66;;;7.39;100.00
38939;BME280;24211;49.980;19.776;2024-02-15T07:56:51;99945.47;;;7.41;100.00
38939;BME280;24211;49.980;19.776;2024-02-15T08:00:10;99955.75;;;7.44;100.00
38939;BME280;24211;49.980;19.776;2024-02-15T08:02:38;99944.72;;;7.47;100.00
38939;BME280;24211;49.980;19.776;2024-02-15T08:05:15;99954.59;;;7.53;100.00
38939;BME280;24211;49.980;19.776;2024-02-15T08:07:44;99953.19;;;7.57;100.00
38939;BME280;24211;49.980;19.776;2024-02-15T08:10:12;99949.34;;;7.60;100.00
38939;BME280;24211;49.980;19.776;2024-02-15T08:12:44;99955.50;;;7.60;100.00
38939;BME280;24211;49.980;19.776;2024-02-15T08:15:15;99953.47;;;7.62;100.00
38939;BME280;24211;49.980;19.776;2024-02-15T08:18:19;99958.41;;;7.65;100.00
38939;BME280;24211;49.980;19.776;2024-02-15T08:20:48;99959.28;;;7.72;100.00
38939;BME280;24211;49.980;19.776;2024-02-15T08:23:41;99966.69;;;7.77;100.00
38939;BME280;24211;49.980;19.776;2024-02-15T08:26:10;99960.16;;;7.79;100.00
38939;BME280;24211;49.980;19.776;2024-02-15T08:28:40;99963.44;;;7.81;100.00
38939;BME280;24211;49.980;19.776;2024-02-15T08:31:11;99963.69;;;7.86;100.00
38939;BME280;24211;49.980;19.776;2024-02-15T08:34:32;99961.53;;;7.97;100.00
38939;BME280;24211;49.980;19.776;2024-02-15T08:37:27;99957.50;;;8.01;100.00
38939;BME280;24211;49.980;19.776;2024-02-15T08:39:54;99962.25;;;8.05;100.00
38939;BME280;24211;49.980;19.776;2024-02-15T08:42:59;99964.94;;;8.12;100.00
38939;BME280;24211;49.980;19.776;2024-02-15T08:45:42;99962.72;;;8.15;100.00
38939;BME280;24211;49.980;19.776;2024-02-15T08:48:11;99952.75;;;8.24;100.00
38939;BME280;24211;49.980;19.776;2024-02-15T08:50:46;99957.53;;;8.28;100.00
38939;BME280;24211;49.980;19.776;2024-02-15T08:53:40;99954.09;;;8.34;100.00
38939;BME280;24211;49.980;19.776;2024-02-15T08:56:07;99952.88;;;8.37;100.00
38939;BME280;24211;49.980;19.776;2024-02-15T08:58:37;99957.03;;;8.46;100.00
38939;BME280;24211;49.980;19.776;2024-02-15T09:01:07;99952.97;;;8.50;100.00
38939;BME280;24211;49.980;19.776;2024-02-15T09:03:35;99949.50;;;8.56;100.00
38939;BME280;24211;49.980;19.776;2024-02-15T09:06:03;99956.91;;;8.61;100.00
38939;BME280;24211;49.980;19.776;2024-02-15T09:08:56;99947.31;;;8.66;100.00
38939;BME280;24211;49.980;19.776;2024-02-15T09:11:29;99945.50;;;8.73;100.00
38939;BME280;24211;49.980;19.776;2024-02-15T09:13:59;99946.56;;;8.79;100.00
38939;BME280;24211;49.980;19.776;2024-02-15T09:16:26;99952.75;;;8.86;100.00
38939;BME280;24211;49.980;19.776;2024-02-15T09:18:55;99958.94;;;8.93;100.00
38939;BME280;24211;49.980;19.776;2024-02-15T09:21:22;99955.66;;;8.97;100.00
38939;BME280;24211;49.980;19.776;2024-02-15T09:23:56;99952.59;;;9.00;100.00
38939;BME280;24211;49.980;19.776;2024-02-15T09:26:29;99964.31;;;9.06;100.00
38939;BME280;24211;49.980;19.776;2024-02-15T09:28:57;99955.72;;;9.10;100.00
38939;BME280;24211;49.980;19.776;2024-02-15T09:31:25;99963.13;;;9.15;100.00
38939;BME280;24211;49.980;19.776;2024-02-15T09:33:53;99958.22;;;9.18;100.00
38939;BME280;24211;49.980;19.776;2024-02-15T09:36:34;99957.41;;;9.25;100.00
38939;BME280;24211;49.980;19.776;2024-02-15T09:39:09;99957.63;;;9.30;100.00
38939;BME280;24211;49.980;19.776;2024-02-15T09:41:41;99954.78;;;9.38;100.00
38939;BME280;24211;49.980;19.776;2024-02-15T09:44:12;99959.94;;;9.46;100.00
38939;BME280;24211;49.980;19.776;2024-02-15T09:46:43;99952.56;;;9.54;100.00
38939;BME280;24211;49.980;19.776;2024-02-15T09:50:23;99953.81;;;9.65;100.00
38939;BME280;24211;49.980;19.776;2024-02-15T09:52:56;99958.53;;;9.76;100.00
38939;BME280;24211;49.980;19.776;2024-02-15T09:55:26;99954.66;;;9.85;100.00
38939;BME280;24211;49.980;19.776;2024-02-15T09:57:55;99953.84;;;9.98;100.00
38939;BME280;24211;49.980;19.776;2024-02-15T10:00:23;99946.44;;;10.06;100.00
38939;BME280;24211;49.980;19.776;2024-02-15T10:02:51;99951.81;;;10.19;100.00
38939;BME280;24211;49.980;19.776;2024-02-15T10:05:30;99943.97;;;10.37;100.00
38939;BME280;24211;49.980;19.776;2024-02-15T10:07:58;99937.41;;;10.46;100.00
38939;BME280;24211;49.980;19.776;2024-02-15T10:10:33;99936.53;;;10.66;100.00
38939;BME280;24211;49.980;19.776;2024-02-15T10:13:03;99936.91;;;10.76;100.00
38939;BME280;24211;49.980;19.776;2024-02-15T10:19:16;99931.81;;;11.12;100.00
38939;BME280;24211;49.980;19.776;2024-02-15T10:21:44;99925.53;;;11.31;100.00
38939;BME280;24211;49.980;19.776;2024-02-15T10:24:38;99927.56;;;11.42;100.00
38939;BME280;24211;49.980;19.776;2024-02-15T10:28:03;99919.59;;;11.60;100.00
38939;BME280;24211;49.980;19.776;2024-02-15T10:31:16;99921.16;;;11.74;100.00
38939;BME280;24211;49.980;19.776;2024-02-15T10:33:44;99913.03;;;11.88;100.00
38939;BME280;24211;49.980;19.776;2024-02-15T10:36:11;99909.03;;;11.97;100.00
38939;BME280;24211;49.980;19.776;2024-02-15T10:39:32;99906.41;;;12.15;100.00
38939;BME280;24211;49.980;19.776;2024-02-15T10:42:01;99901.38;;;12.25;100.00
38939;BME280;24211;49.980;19.776;2024-02-15T10:44:51;99899.16;;;12.40;100.00
38939;BME280;24211;49.980;19.776;2024-02-15T10:47:20;99896.47;;;12.58;100.00
38939;BME280;24211;49.980;19.776;2024-02-15T10:49:51;99888.44;;;12.76;100.00
38939;BME280;24211;49.980;19.776;2024-02-15T10:52:20;99883.97;;;12.88;100.00
38939;BME280;24211;49.980;19.776;2024-02-15T10:55:04;99889.84;;;12.97;100.00
38939;BME280;24211;49.980;19.776;2024-02-15T10:57:35;99878.59;;;13.06;100.00
38939;BME280;24211;49.980;19.776;2024-02-15T11:00:05;99881.56;;;13.17;100.00
38939;BME280;24211;49.980;19.776;2024-02-15T11:03:02;99874.22;;;13.24;100.00
38939;BME280;24211;49.980;19.776;2024-02-15T11:05:35;99868.19;;;13.28;100.00
38939;BME280;24211;49.980;19.776;2024-02-15T11:08:14;99874.22;;;13.24;100.00
38939;BME280;24211;49.980;19.776;2024-02-15T11:10:54;99859.88;;;13.30;100.00
38939;BME280;24211;49.980;19.776;2024-02-15T11:13:26;99858.84;;;13.31;100.00
38939;BME280;24211;49.980;19.776;2024-02-15T11:16:41;99856.88;;;13.38;100.00
38939;BME280;24211;49.980;19.776;2024-02-15T11:22:16;99852.94;;;13.52;100.00
38939;BME280;24211;49.980;19.776;2024-02-15T11:24:52;99858.31;;;13.52;100.00
38939;BME280;24211;49.980;19.776;2024-02-15T11:27:30;99852.63;;;13.60;100.00
38939;BME280;24211;49.980;19.776;2024-02-15T11:30:01;99850.63;;;13.67;100.00
38939;BME280;24211;49.980;19.776;2024-02-15T11:32:50;99848.69;;;13.97;100.00
38939;BME280;24211;49.980;19.776;2024-02-15T11:36:11;99840.16;;;14.00;100.00
38939;BME280;24211;49.980;19.776;2024-02-15T11:42:39;99838.13;;;14.93;100.00
38939;BME280;24211;49.980;19.776;2024-02-15T11:45:28;99836.22;;;15.05;100.00
38939;BME280;24211;49.980;19.776;2024-02-15T11:48:35;99827.25;;;15.33;100.00
38939;BME280;24211;49.980;19.776;2024-02-15T11:51:07;99833.03;;;15.53;100.00
38939;BME280;24211;49.980;19.776;2024-02-15T11:54:16;99827.00;;;15.46;100.00
38939;BME280;24211;49.980;19.776;2024-02-15T11:56:57;99817.00;;;15.30;100.00
38939;BME280;24211;49.980;19.776;2024-02-15T12:00:04;99824.00;;;15.31;100.00
38939;BME280;24211;49.980;19.776;2024-02-15T12:03:28;99823.16;;;15.14;100.00
38939;BME280;24211;49.980;19.776;2024-02-15T12:06:31;99823.63;;;15.11;100.00
38939;BME280;24211;49.980;19.776;2024-02-15T12:09:28;99815.63;;;15.28;100.00
38939;BME280;24211;49.980;19.776;2024-02-15T12:12:20;99814.41;;;16.02;100.00
38939;BME280;24211;49.980;19.776;2024-02-15T12:15:16;99818.38;;;16.54;100.00
38939;BME280;24211;49.980;19.776;2024-02-15T12:18:28;99815.59;;;16.92;100.00
38939;BME280;24211;49.980;19.776;2024-02-15T12:21:28;99815.16;;;17.06;100.00
38939;BME280;24211;49.980;19.776;2024-02-15T12:23:58;99812.94;;;16.97;100.00
38939;BME280;24211;49.980;19.776;2024-02-15T12:26:25;99810.09;;;17.09;100.00
38939;BME280;24211;49.980;19.776;2024-02-15T12:28:54;99811.81;;;17.20;100.00
38939;BME280;24211;49.980;19.776;2024-02-15T12:31:49;99806.22;;;17.27;100.00
38939;BME280;24211;49.980;19.776;2024-02-15T12:34:20;99808.38;;;17.25;100.00
38939;BME280;24211;49.980;19.776;2024-02-15T12:37:14;99808.16;;;17.05;100.00
38939;BME280;24211;49.980;19.776;2024-02-15T12:40:48;99799.41;;;16.92;100.00
38939;BME280;24211;49.980;19.776;2024-02-15T12:43:17;99802.31;;;16.91;100.00
38939;BME280;24211;49.980;19.776;2024-02-15T12:45:45;99795.06;;;16.91;100.00
38939;BME280;24211;49.980;19.776;2024-02-15T12:48:12;99801.97;;;16.82;100.00
38939;BME280;24211;49.980;19.776;2024-02-15T12:50:42;99795.19;;;16.80;100.00
38939;BME280;24211;49.980;19.776;2024-02-15T12:53:35;99787.03;;;16.75;100.00
38939;BME280;24211;49.980;19.776;2024-02-15T12:56:33;99789.66;;;16.91;100.00
38939;BME280;24211;49.980;19.776;2024-02-15T12:59:00;99788.00;;;16.90;100.00
38939;BME280;24211;49.980;19.776;2024-02-15T13:01:28;99788.47;;;16.82;100.00
38939;BME280;24211;49.980;19.776;2024-02-15T13:03:56;99788.00;;;16.90;100.00
38939;BME280;24211;49.980;19.776;2024-02-15T13:06:24;99786.69;;;16.93;100.00
38939;BME280;24211;49.980;19.776;2024-02-15T13:08:53;99778.19;;;16.79;100.00
38939;BME280;24211;49.980;19.776;2024-02-15T13:11:20;99779.31;;;16.83;100.00
38939;BME280;24211;49.980;19.776;2024-02-15T13:13:51;99774.31;;;16.97;100.00
38939;BME280;24211;49.980;19.776;2024-02-15T13:16:57;99767.25;;;17.23;100.00
38939;BME280;24211;49.980;19.776;2024-02-15T13:19:29;99774.34;;;17.29;100.00
38939;BME280;24211;49.980;19.776;2024-02-15T13:21:56;99766.28;;;17.34;100.00
38939;BME280;24211;49.980;19.776;2024-02-15T13:24:28;99767.94;;;17.40;100.00
38939;BME280;24211;49.980;19.776;2024-02-15T13:26:56;99763.97;;;17.47;100.00
38939;BME280;24211;49.980;19.776;2024-02-15T13:29:39;99766.00;;;17.62;100.00
38939;BME280;24211;49.980;19.776;2024-02-15T13:32:21;99762.03;;;17.75;100.00
38939;BME280;24211;49.980;19.776;2024-02-15T13:34:48;99765.41;;;17.55;100.00
38939;BME280;24211;49.980;19.776;2024-02-15T13:37:20;99759.84;;;17.40;100.00
38939;BME280;24211;49.980;19.776;2024-02-15T13:40:13;99761.94;;;17.33;100.00
38939;BME280;24211;49.980;19.776;2024-02-15T13:43:05;99762.13;;;17.21;100.00
38939;BME280;24211;49.980;19.776;2024-02-15T13:45:47;99757.59;;;17.27;100.00
38939;BME280;24211;49.980;19.776;2024-02-15T13:48:40;99757.13;;;17.40;100.00
38939;BME280;24211;49.980;19.776;2024-02-15T13:51:34;99755.72;;;17.59;100.00
38939;BME280;24211;49.980;19.776;2024-02-15T13:54:02;99756.50;;;17.59;100.00
38939;BME280;24211;49.980;19.776;2024-02-15T13:56:45;99755.19;;;17.62;100.00
38939;BME280;24211;49.980;19.776;2024-02-15T13:59:13;99760.09;;;17.70;100.00
38939;BME280;24211;49.980;19.776;2024-02-15T14:02:09;99749.41;;;17.85;100.00
38939;BME280;24211;49.980;19.776;2024-02-15T14:04:37;99759.69;;;17.88;100.00
38939;BME280;24211;49.980;19.776;2024-02-15T14:07:30;99754.84;;;17.90;100.00
38939;BME280;24211;49.980;19.776;2024-02-15T14:09:58;99763.16;;;17.79;100.00
38939;BME280;24211;49.980;19.776;2024-02-15T14:13:11;99761.72;;;17.66;100.00
38939;BME280;24211;49.980;19.776;2024-02-15T14:16:05;99762.22;;;17.63;100.00